Time;durP1;ratioP1;P1;durP2;ratioP2;P2;SDS_P1;SDS_P2;PMS_P1;PMS_P2;Temp;Humidity;BMP_temperature;BMP_pressure;BME280_temperature;BME280_humidity;BME280_pressure;Samples;Min_cycle;Max_cycle;Signal;HPM_P1;HPM_P2
2021/12/28 00:01:17;;;;;;;14.10;3.80;;;8.60;99.90;;;;;;5027475;28;20466;-71
2021/12/28 00:04:06;;;;;;;21.97;3.93;;;8.60;99.90;;;;;;5037140;28;20568;-72
2021/12/28 00:06:52;;;;;;;18.67;4.60;;;8.70;99.90;;;;;;5036199;28;20444;-72
2021/12/28 00:09:38;;;;;;;15.93;4.20;;;8.90;99.90;;;;;;5039417;28;20432;-72
2021/12/28 00:12:24;;;;;;;22.52;5.00;;;8.90;99.90;;;;;;5033295;28;20960;-72
2021/12/28 00:15:31;;;;;;;19.73;4.65;;;9.00;99.90;;;;;;5035452;28;20564;-72
2021/12/28 00:18:17;;;;;;;11.67;3.97;;;9.00;99.90;;;;;;5039333;28;20205;-72
2021/12/28 00:21:06;;;;;;;19.67;4.73;;;9.10;99.90;;;;;;5023535;28;20471;-72
2021/12/28 00:23:53;;;;;;;18.70;3.97;;;9.10;99.90;;;;;;5023218;28;20449;-72
2021/12/28 00:26:38;;;;;;;14.80;4.63;;;9.20;99.90;;;;;;5026842;28;21012;-72
2021/12/28 00:29:24;;;;;;;22.20;4.30;;;9.20;99.90;;;;;;5023603;28;20575;-72
2021/12/28 00:32:09;;;;;;;17.70;5.20;;;9.30;99.90;;;;;;5034045;28;21027;-72
2021/12/28 00:34:55;;;;;;;23.58;4.75;;;9.40;99.90;;;;;;5020244;28;20444;-72
2021/12/28 00:37:42;;;;;;;17.33;4.40;;;9.40;99.90;;;;;;5032197;28;20675;-72
2021/12/28 00:40:28;;;;;;;18.93;4.00;;;9.50;99.90;;;;;;5040033;28;20515;-72
2021/12/28 00:43:14;;;;;;;13.43;4.90;;;9.50;99.90;;;;;;5036988;28;20533;-72
2021/12/28 00:46:00;;;;;;;13.13;3.67;;;9.60;99.90;;;;;;5015561;28;20500;-72
2021/12/28 00:48:46;;;;;;;16.20;3.60;;;9.60;99.90;;;;;;5030448;28;21043;-72
2021/12/28 00:51:32;;;;;;;11.93;3.80;;;9.60;99.90;;;;;;5022929;28;20430;-72
2021/12/28 00:54:19;;;;;;;16.10;4.57;;;9.60;99.90;;;;;;5036468;28;20452;-72
2021/12/28 00:57:06;;;;;;;16.13;4.67;;;9.60;99.90;;;;;;5038673;28;21021;-72
2021/12/28 00:59:52;;;;;;;22.30;4.10;;;9.70;99.90;;;;;;5031493;28;20850;-72
2021/12/28 01:02:38;;;;;;;21.83;3.60;;;9.70;99.90;;;;;;5018546;28;20477;-72
2021/12/28 01:05:26;;;;;;;13.53;3.37;;;9.80;99.90;;;;;;5022234;28;21091;-72
2021/12/28 01:08:12;;;;;;;32.50;5.03;;;9.80;99.90;;;;;;5025487;28;20448;-72
2021/12/28 01:10:59;;;;;;;13.60;3.47;;;9.90;99.90;;;;;;5038008;28;20992;-72
2021/12/28 01:13:45;;;;;;;13.20;3.07;;;9.90;99.90;;;;;;5036402;28;20420;-72
2021/12/28 01:16:31;;;;;;;20.57;3.67;;;9.90;99.90;;;;;;5032986;28;20475;-72
2021/12/28 01:19:17;;;;;;;11.53;3.70;;;9.90;99.90;;;;;;5038158;28;20515;-72
2021/12/28 01:22:03;;;;;;;16.10;3.90;;;9.90;99.90;;;;;;5039888;28;20473;-72
2021/12/28 01:24:49;;;;;;;19.30;4.27;;;9.90;99.90;;;;;;5022954;28;20469;-72
2021/12/28 01:27:36;;;;;;;9.00;2.73;;;9.80;99.90;;;;;;5028421;28;20447;-72
2021/12/28 01:30:25;;;;;;;13.90;3.60;;;9.80;99.90;;;;;;5033079;28;21025;-72
2021/12/28 01:33:11;;;;;;;13.03;3.77;;;9.80;99.90;;;;;;5022335;28;20457;-72
2021/12/28 01:35:58;;;;;;;11.07;3.40;;;9.80;99.90;;;;;;5022481;28;20444;-72
2021/12/28 01:38:43;;;;;;;12.23;2.87;;;9.80;99.90;;;;;;5036078;28;20439;-72
2021/12/28 01:41:29;;;;;;;12.10;3.50;;;9.80;99.90;;;;;;5033377;28;20479;-71
2021/12/28 01:44:16;;;;;;;17.73;3.10;;;9.90;99.90;;;;;;5027951;28;20957;-72
2021/12/28 01:47:02;;;;;;;23.03;4.70;;;9.80;99.90;;;;;;5030651;28;20497;-72
2021/12/28 01:49:48;;;;;;;6.20;3.77;;;9.80;99.90;;;;;;5042100;28;20448;-72
2021/12/28 01:52:33;;;;;;;9.67;2.77;;;9.90;99.90;;;;;;5028415;28;20531;-72
2021/12/28 01:55:19;;;;;;;7.70;2.87;;;9.90;99.90;;;;;;5035669;28;20444;-73
2021/12/28 01:58:05;;;;;;;15.13;3.40;;;9.90;99.90;;;;;;5023403;28;20449;-72
2021/12/28 02:00:54;;;;;;;15.43;2.97;;;9.80;99.90;;;;;;5032978;28;20460;-72
2021/12/28 02:03:41;;;;;;;14.63;3.20;;;9.80;99.90;;;;;;5020454;28;20428;-72
2021/12/28 02:06:27;;;;;;;16.03;2.90;;;9.80;99.90;;;;;;5020538;28;20449;-72
2021/12/28 02:09:13;;;;;;;9.60;2.80;;;9.80;99.90;;;;;;5029673;28;21003;-72
2021/12/28 02:11:59;;;;;;;15.60;3.70;;;9.90;99.90;;;;;;5051839;22;20531;-73
2021/12/28 02:14:45;;;;;;;12.90;3.27;;;9.90;99.90;;;;;;5025069;28;20454;-73
2021/12/28 02:17:32;;;;;;;13.50;3.57;;;10.00;99.90;;;;;;5031192;28;20428;-72
2021/12/28 02:20:21;;;;;;;16.23;3.40;;;10.00;99.90;;;;;;5028552;28;20448;-72
2021/12/28 02:23:08;;;;;;;16.77;2.30;;;10.00;99.90;;;;;;5009792;28;20474;-73
2021/12/28 02:25:54;;;;;;;9.68;2.55;;;10.00;99.90;;;;;;5008725;28;20449;-73
2021/12/28 02:28:40;;;;;;;7.17;2.93;;;10.00;99.90;;;;;;5006008;28;20210;-72
2021/12/28 02:31:27;;;;;;;12.70;2.70;;;9.90;99.90;;;;;;5009997;28;20524;-72
2021/12/28 02:34:13;;;;;;;9.53;2.50;;;9.70;99.90;;;;;;5005010;28;20474;-72
2021/12/28 02:37:00;;;;;;;13.97;4.00;;;9.50;99.90;;;;;;5008069;28;20453;-72
2021/12/28 02:39:46;;;;;;;14.40;3.10;;;9.40;99.90;;;;;;5003711;28;20448;-72
2021/12/28 02:42:32;;;;;;;13.80;3.47;;;9.40;99.90;;;;;;5008093;28;20559;-73
2021/12/28 02:45:23;;;;;;;9.70;2.50;;;9.30;99.90;;;;;;5009160;28;20569;-72
2021/12/28 02:48:09;;;;;;;18.27;2.80;;;9.30;99.90;;;;;;5003428;28;20524;-72
2021/12/28 02:51:03;;;;;;;16.23;2.90;;;9.20;99.90;;;;;;5002628;28;21085;-72
2021/12/28 02:53:50;;;;;;;9.10;2.03;;;9.10;99.90;;;;;;5001566;28;20453;-72
2021/12/28 02:56:36;;;;;;;10.60;3.27;;;9.20;99.90;;;;;;5005520;28;20980;-72
2021/12/28 02:59:21;;;;;;;7.97;3.00;;;9.20;99.90;;;;;;5009285;28;20445;-72
2021/12/28 03:02:07;;;;;;;10.60;2.37;;;9.20;99.90;;;;;;5009355;28;20613;-72
2021/12/28 03:04:52;;;;;;;16.30;2.90;;;9.10;99.90;;;;;;5000679;28;20450;-73
2021/12/28 03:07:38;;;;;;;15.73;3.73;;;9.10;99.90;;;;;;5004078;28;20450;-73
2021/12/28 03:10:25;;;;;;;16.45;3.65;;;9.10;99.90;;;;;;5000481;28;20449;-72
2021/12/28 03:13:15;;;;;;;17.80;2.50;;;9.10;99.90;;;;;;5004768;28;20520;-72
2021/12/28 03:16:01;;;;;;;7.85;2.25;;;9.10;99.90;;;;;;5009413;28;20536;-72
2021/12/28 03:18:47;;;;;;;16.60;3.07;;;9.10;99.90;;;;;;5010407;28;20229;-73
2021/12/28 03:21:35;;;;;;;8.10;2.50;;;9.10;99.90;;;;;;5005290;28;20844;-73
2021/12/28 03:24:21;;;;;;;9.73;2.90;;;9.20;99.90;;;;;;5006101;28;20495;-73
2021/12/28 03:27:08;;;;;;;17.50;3.60;;;9.20;99.90;;;;;;5011368;28;20457;-73
2021/12/28 03:29:54;;;;;;;16.27;2.73;;;9.20;99.90;;;;;;5009777;28;20810;-73
2021/12/28 03:32:40;;;;;;;12.80;2.60;;;9.20;99.90;;;;;;5006575;28;20950;-73
2021/12/28 03:35:27;;;;;;;13.77;3.40;;;9.20;99.90;;;;;;5002253;28;20970;-72
2021/12/28 03:38:12;;;;;;;8.67;2.33;;;9.20;99.90;;;;;;5014009;28;20958;-72
2021/12/28 03:40:58;;;;;;;6.50;2.13;;;9.20;99.90;;;;;;5012821;28;20456;-73
2021/12/28 03:43:49;;;;;;;7.00;2.03;;;9.10;99.90;;;;;;5002155;28;20713;-73
2021/12/28 03:46:36;;;;;;;7.83;2.33;;;9.10;99.90;;;;;;5007795;28;20454;-73
2021/12/28 03:49:21;;;;;;;8.93;1.92;;;9.10;99.90;;;;;;5003260;28;20966;-73
2021/12/28 03:52:08;;;;;;;10.20;3.60;;;9.10;99.90;;;;;;5012194;28;20214;-73
2021/12/28 03:54:53;;;;;;;8.93;2.10;;;9.00;99.90;;;;;;5014572;28;20421;-73
2021/12/28 03:57:39;;;;;;;16.30;1.87;;;9.00;99.90;;;;;;5007400;28;21054;-73
2021/12/28 04:00:30;;;;;;;10.73;2.57;;;9.00;99.90;;;;;;5008460;28;20933;-73
2021/12/28 04:03:17;;;;;;;9.07;2.47;;;9.00;99.90;;;;;;5011690;28;20551;-73
2021/12/28 04:06:07;;;;;;;7.40;1.93;;;8.90;99.90;;;;;;5011554;28;20436;-73
2021/12/28 04:08:53;;;;;;;9.10;2.67;;;8.90;99.90;;;;;;5004133;28;20454;-73
2021/12/28 04:11:39;;;;;;;8.00;2.13;;;8.90;99.90;;;;;;5008411;28;20461;-74
2021/12/28 04:14:25;;;;;;;6.20;2.37;;;8.80;99.90;;;;;;5001383;28;20440;-73
2021/12/28 04:17:13;;;;;;;4.60;1.97;;;8.90;99.90;;;;;;5005972;28;20529;-74
2021/12/28 04:19:59;;;;;;;12.40;2.30;;;8.90;99.90;;;;;;5010042;28;20851;-73
2021/12/28 04:22:44;;;;;;;9.63;2.40;;;8.90;99.90;;;;;;5004615;28;20473;-73
2021/12/28 04:25:31;;;;;;;10.90;3.70;;;8.90;99.90;;;;;;5014040;28;20581;-74
2021/12/28 04:28:16;;;;;;;6.10;2.80;;;9.00;99.90;;;;;;5012589;28;20448;-73
2021/12/28 04:31:02;;;;;;;4.67;2.10;;;9.00;99.90;;;;;;5009788;28;20450;-74
2021/12/28 04:33:50;;;;;;;9.87;2.23;;;9.00;99.90;;;;;;5010222;28;20465;-74
2021/12/28 04:36:35;;;;;;;7.03;2.20;;;9.00;99.90;;;;;;5010362;28;20559;-74
2021/12/28 04:39:21;;;;;;;5.90;2.40;;;9.00;99.90;;;;;;5002092;28;20577;-73
2021/12/28 04:42:07;;;;;;;8.60;2.13;;;9.00;99.90;;;;;;5004791;28;20461;-75
2021/12/28 04:44:53;;;;;;;5.07;1.90;;;9.10;99.90;;;;;;5012349;28;21053;-74
2021/12/28 04:47:39;;;;;;;10.60;2.03;;;9.10;99.90;;;;;;5014156;28;20438;-74
2021/12/28 04:50:27;;;;;;;10.83;2.53;;;9.10;99.90;;;;;;5011114;28;20620;-74
2021/12/28 04:53:13;;;;;;;7.13;2.03;;;9.10;99.90;;;;;;5001224;28;20596;-74
2021/12/28 04:55:59;;;;;;;11.23;2.80;;;9.10;99.90;;;;;;5009412;28;20461;-74
2021/12/28 04:58:45;;;;;;;7.83;2.00;;;9.00;99.90;;;;;;5013633;28;20426;-73
2021/12/28 05:01:30;;;;;;;6.63;1.40;;;9.10;99.90;;;;;;5009379;28;20445;-73
2021/12/28 05:04:16;;;;;;;6.80;1.73;;;9.00;99.90;;;;;;5011161;28;20468;-74
2021/12/28 05:07:03;;;;;;;4.57;1.90;;;9.00;99.90;;;;;;5012194;28;20457;-75
2021/12/28 05:09:50;;;;;;;10.17;2.30;;;9.10;99.90;;;;;;5009149;28;20449;-73
2021/12/28 05:12:36;;;;;;;4.70;2.00;;;9.00;99.90;;;;;;5003976;28;21121;-74
2021/12/28 05:15:21;;;;;;;5.07;1.60;;;9.10;99.90;;;;;;5010479;28;20485;-75
2021/12/28 05:18:07;;;;;;;6.68;2.15;;;9.10;99.90;;;;;;5008566;28;20488;-73
2021/12/28 05:20:52;;;;;;;6.43;1.47;;;9.10;99.90;;;;;;5007391;28;20245;-74
2021/12/28 05:23:39;;;;;;;7.93;1.70;;;9.00;99.90;;;;;;5000329;28;20472;-75
2021/12/28 05:26:25;;;;;;;9.57;1.53;;;9.00;99.90;;;;;;5012601;28;20942;-73
2021/12/28 05:29:11;;;;;;;8.37;1.93;;;9.00;99.90;;;;;;5011120;28;20959;-74
2021/12/28 05:31:57;;;;;;;6.23;1.80;;;9.00;99.90;;;;;;5003176;28;20558;-74
2021/12/28 05:34:42;;;;;;;6.37;2.03;;;9.00;99.90;;;;;;5007345;28;20508;-74
2021/12/28 05:37:28;;;;;;;8.23;1.67;;;9.00;99.90;;;;;;5002593;28;20477;-73
2021/12/28 05:40:16;;;;;;;10.43;2.13;;;9.10;99.90;;;;;;4997289;28;20441;-74
2021/12/28 05:43:01;;;;;;;7.60;1.83;;;9.00;99.90;;;;;;5001597;28;20476;-75
2021/12/28 05:45:47;;;;;;;11.17;2.67;;;9.00;99.90;;;;;;5007113;28;20457;-74
2021/12/28 05:48:32;;;;;;;5.57;1.97;;;9.00;99.90;;;;;;5006575;28;20445;-75
2021/12/28 05:51:18;;;;;;;7.60;1.90;;;9.10;99.90;;;;;;4997578;28;20970;-74
2021/12/28 05:54:04;;;;;;;4.87;1.87;;;9.10;99.90;;;;;;5008621;28;20982;-75
2021/12/28 05:56:51;;;;;;;5.43;1.77;;;9.10;99.90;;;;;;5006828;28;20452;-74
2021/12/28 05:59:37;;;;;;;10.03;2.20;;;9.10;99.90;;;;;;5012158;28;20445;-74
2021/12/28 06:02:23;;;;;;;6.43;2.30;;;9.10;99.90;;;;;;5005665;28;21068;-71
2021/12/28 06:05:09;;;;;;;7.13;1.90;;;9.10;99.90;;;;;;5005041;28;20449;-74
2021/12/28 06:07:54;;;;;;;5.93;2.28;;;9.10;99.90;;;;;;5010475;28;20969;-74
2021/12/28 06:10:40;;;;;;;2.87;1.50;;;9.20;99.90;;;;;;5001126;28;20257;-75
2021/12/28 06:13:28;;;;;;;5.83;1.90;;;9.10;99.90;;;;;;5009491;28;20511;-74
2021/12/28 06:16:14;;;;;;;7.20;1.43;;;9.00;99.90;;;;;;5010840;28;20456;-74
2021/12/28 06:19:00;;;;;;;11.23;3.43;;;8.90;99.90;;;;;;5005348;28;20489;-75
2021/12/28 06:21:46;;;;;;;9.13;2.25;;;8.90;99.90;;;;;;4999838;28;20935;-74
2021/12/28 06:24:31;;;;;;;10.50;2.00;;;8.90;99.90;;;;;;5006746;28;20235;-74
2021/12/28 06:27:17;;;;;;;5.33;2.07;;;9.00;99.90;;;;;;5010450;28;20437;-74
2021/12/28 06:30:05;;;;;;;8.00;1.90;;;8.90;99.90;;;;;;5011505;28;21020;-75
2021/12/28 06:32:50;;;;;;;9.53;1.10;;;9.00;99.90;;;;;;5002568;28;20460;-74
2021/12/28 06:35:37;;;;;;;4.13;1.97;;;9.10;99.90;;;;;;5006014;28;20813;-75
2021/12/28 06:38:23;;;;;;;5.17;1.60;;;9.00;99.90;;;;;;5001967;28;20803;-75
2021/12/28 06:41:09;;;;;;;4.70;1.20;;;9.00;99.90;;;;;;4999454;28;20454;-74
2021/12/28 06:43:55;;;;;;;9.67;3.00;;;9.10;99.90;;;;;;5008366;28;20834;-74
2021/12/28 06:46:42;;;;;;;5.00;1.67;;;9.10;99.90;;;;;;5010950;28;20480;-74
2021/12/28 06:49:27;;;;;;;3.45;1.20;;;9.10;99.90;;;;;;5008097;28;20441;-74
2021/12/28 06:52:14;;;;;;;9.10;2.23;;;9.10;99.90;;;;;;5005622;28;20234;-74
2021/12/28 06:54:59;;;;;;;7.57;1.80;;;9.00;99.90;;;;;;5010148;28;20449;-74
2021/12/28 06:57:45;;;;;;;6.93;1.83;;;9.00;99.90;;;;;;5009012;28;20682;-74
2021/12/28 07:00:30;;;;;;;3.07;1.40;;;9.10;99.90;;;;;;5011442;28;20902;-74
2021/12/28 07:03:17;;;;;;;7.80;1.57;;;9.00;99.90;;;;;;4999895;28;20527;-74
2021/12/28 07:06:04;;;;;;;2.53;1.23;;;9.00;99.90;;;;;;5000672;28;20517;-74
2021/12/28 07:08:49;;;;;;;2.70;1.07;;;9.10;99.90;;;;;;5003503;28;20442;-74
2021/12/28 07:11:34;;;;;;;7.72;1.60;;;9.10;99.90;;;;;;5002256;28;20438;-74
2021/12/28 07:14:20;;;;;;;4.33;1.30;;;9.10;99.90;;;;;;5008270;28;20338;-74
2021/12/28 07:17:06;;;;;;;2.78;1.10;;;9.20;99.90;;;;;;5007723;28;20479;-74
2021/12/28 07:19:53;;;;;;;3.40;0.90;;;9.20;99.90;;;;;;4999422;28;20281;-75
2021/12/28 07:22:39;;;;;;;2.87;1.30;;;9.30;99.90;;;;;;4998514;28;20620;-74
2021/12/28 07:25:25;;;;;;;12.07;1.30;;;9.30;99.90;;;;;;5009917;28;20441;-74
2021/12/28 07:28:11;;;;;;;3.42;1.60;;;9.30;99.90;;;;;;5006646;28;20592;-74
2021/12/28 07:30:57;;;;;;;14.03;2.43;;;9.20;99.90;;;;;;5004501;28;20273;-72
2021/12/28 07:33:43;;;;;;;4.63;1.10;;;9.30;99.90;;;;;;5005208;28;20472;-74
2021/12/28 07:36:30;;;;;;;3.70;1.00;;;9.30;99.90;;;;;;5007464;28;20974;-74
2021/12/28 07:39:15;;;;;;;4.83;1.40;;;9.30;99.90;;;;;;5008797;28;20454;-73
2021/12/28 07:42:01;;;;;;;2.70;0.90;;;9.30;99.90;;;;;;5006045;28;20508;-74
2021/12/28 07:44:47;;;;;;;2.13;1.00;;;9.40;99.90;;;;;;5001551;28;20547;-74
2021/12/28 07:47:32;;;;;;;4.20;1.03;;;9.40;99.90;;;;;;5005586;28;20449;-74
2021/12/28 07:50:20;;;;;;;2.70;1.27;;;9.30;99.90;;;;;;5009603;28;20448;-74
2021/12/28 07:53:07;;;;;;;2.50;1.13;;;9.40;99.90;;;;;;5002690;28;20493;-73
2021/12/28 07:55:53;;;;;;;2.03;0.87;;;9.30;99.90;;;;;;5006690;28;20504;-74
2021/12/28 07:58:39;;;;;;;5.47;1.63;;;9.30;99.90;;;;;;4999317;28;20442;-74
2021/12/28 08:01:25;;;;;;;2.70;1.20;;;9.30;99.90;;;;;;5005045;28;20449;-74
2021/12/28 08:04:10;;;;;;;1.93;1.07;;;9.30;99.90;;;;;;5006951;28;20472;-74
2021/12/28 08:06:56;;;;;;;2.30;1.30;;;9.30;99.90;;;;;;5002960;28;20980;-74
2021/12/28 08:09:43;;;;;;;3.83;1.60;;;9.30;99.90;;;;;;5012689;28;20253;-75
2021/12/28 08:12:29;;;;;;;2.43;1.03;;;9.30;99.90;;;;;;5022305;22;20492;-74
2021/12/28 08:15:15;;;;;;;2.73;1.40;;;9.40;99.90;;;;;;5030350;28;20437;-74
2021/12/28 08:18:02;;;;;;;2.00;1.07;;;9.40;99.90;;;;;;5029101;28;20590;-74
2021/12/28 08:20:48;;;;;;;3.73;1.00;;;9.30;99.90;;;;;;5026597;28;20583;-74
2021/12/28 08:23:34;;;;;;;1.80;0.80;;;9.30;99.90;;;;;;5032047;28;20522;-74
2021/12/28 08:26:21;;;;;;;2.97;1.13;;;9.40;99.90;;;;;;5028642;28;20340;-74
2021/12/28 08:29:07;;;;;;;2.87;1.03;;;9.40;99.90;;;;;;5032707;28;20417;-74
2021/12/28 08:31:52;;;;;;;3.20;0.90;;;9.40;99.90;;;;;;5029548;28;20440;-76
2021/12/28 08:34:38;;;;;;;1.83;0.90;;;9.40;99.90;;;;;;5026885;28;20497;-76
2021/12/28 08:37:23;;;;;;;2.07;0.83;;;9.40;99.90;;;;;;5028086;28;20570;-76
2021/12/28 08:40:12;;;;;;;4.35;1.65;;;9.50;99.90;;;;;;5025780;28;20445;-76
2021/12/28 08:42:59;;;;;;;1.60;0.90;;;9.50;99.90;;;;;;5027436;28;20221;-76
2021/12/28 08:45:45;;;;;;;1.30;0.70;;;9.60;99.90;;;;;;5025431;28;20581;-77
2021/12/28 08:48:31;;;;;;;3.67;0.90;;;9.60;99.90;;;;;;5032775;28;20739;-75
2021/12/28 08:51:16;;;;;;;4.47;0.90;;;9.60;99.90;;;;;;5031602;28;20625;-76
2021/12/28 08:54:02;;;;;;;1.65;0.90;;;9.50;99.90;;;;;;5029832;28;20592;-76
2021/12/28 08:56:50;;;;;;;2.10;1.00;;;9.50;99.90;;;;;;5033133;28;20213;-73
2021/12/28 08:59:38;;;;;;;1.53;0.80;;;9.60;99.90;;;;;;5027245;28;20985;-73
2021/12/28 09:02:24;;;;;;;2.27;0.70;;;9.60;99.90;;;;;;5028578;28;20451;-73
2021/12/28 09:05:10;;;;;;;1.10;0.60;;;9.70;99.90;;;;;;5031823;28;20471;-73
2021/12/28 09:07:57;;;;;;;2.27;1.03;;;9.70;99.90;;;;;;5029641;28;20436;-73
2021/12/28 09:10:43;;;;;;;1.50;0.67;;;9.70;99.90;;;;;;5030262;28;20814;-73
2021/12/28 09:13:28;;;;;;;2.10;0.97;;;9.70;99.90;;;;;;5030524;28;20472;-75
2021/12/28 09:16:15;;;;;;;1.60;1.00;;;9.80;99.90;;;;;;5031797;28;20480;-75
2021/12/28 09:19:01;;;;;;;1.70;1.10;;;9.70;99.90;;;;;;5029217;28;20804;-75
2021/12/28 09:21:47;;;;;;;2.03;0.80;;;9.80;99.90;;;;;;5019498;28;20813;-76
2021/12/28 09:24:32;;;;;;;2.47;1.37;;;9.80;99.90;;;;;;5024972;28;20542;-76
2021/12/28 09:27:19;;;;;;;1.97;1.33;;;9.80;99.90;;;;;;5032393;28;20451;-75
2021/12/28 09:30:06;;;;;;;1.80;1.00;;;9.70;99.90;;;;;;5029617;28;20440;-75
2021/12/28 09:32:53;;;;;;;2.20;1.00;;;9.70;99.90;;;;;;5026513;28;20476;-76
2021/12/28 09:35:39;;;;;;;1.45;1.00;;;9.70;99.90;;;;;;5025793;28;20449;-75
2021/12/28 09:38:25;;;;;;;2.07;1.50;;;9.70;99.90;;;;;;5023675;28;20320;-73
2021/12/28 09:41:11;;;;;;;3.33;1.33;;;9.80;99.90;;;;;;5028282;28;20985;-73
2021/12/28 09:43:57;;;;;;;1.80;1.00;;;9.70;99.90;;;;;;5025085;28;20476;-74
2021/12/28 09:46:43;;;;;;;1.70;1.17;;;9.70;99.90;;;;;;5019590;28;20584;-73
2021/12/28 09:49:30;;;;;;;1.50;1.13;;;9.70;99.90;;;;;;5029371;28;20444;-74
2021/12/28 09:52:16;;;;;;;2.83;1.45;;;9.70;99.90;;;;;;5026615;28;20519;-73
2021/12/28 09:55:02;;;;;;;1.77;1.10;;;9.70;99.90;;;;;;5028411;28;20257;-74
2021/12/28 09:57:48;;;;;;;2.05;1.10;;;9.70;99.90;;;;;;5032068;28;20444;-74
2021/12/28 10:00:34;;;;;;;3.30;1.33;;;9.80;99.90;;;;;;5030100;28;20205;-74
2021/12/28 10:03:20;;;;;;;2.10;1.60;;;9.80;99.90;;;;;;5031072;28;20546;-74
2021/12/28 10:06:18;;;;;;;2.07;1.23;;;9.80;99.90;;;;;;5030909;28;20487;-74
2021/12/28 10:09:08;;;;;;;2.73;1.40;;;9.80;99.90;;;;;;5020146;28;20452;-74
2021/12/28 10:11:57;;;;;;;1.70;1.40;;;9.80;99.90;;;;;;5022388;28;20811;-74
2021/12/28 10:14:42;;;;;;;1.97;1.40;;;9.90;99.90;;;;;;5022336;28;20818;-74
2021/12/28 10:17:30;;;;;;;2.30;1.50;;;9.90;99.90;;;;;;5021720;28;20443;-74
2021/12/28 10:20:19;;;;;;;2.37;1.67;;;9.90;99.90;;;;;;5028719;28;20441;-74
2021/12/28 10:23:10;;;;;;;1.90;1.43;;;9.90;99.90;;;;;;5021367;28;20480;-74
2021/12/28 10:25:59;;;;;;;2.63;1.30;;;10.00;99.90;;;;;;5026020;28;20472;-74
2021/12/28 10:28:44;;;;;;;7.53;1.77;;;10.00;99.90;;;;;;5023848;28;20548;-75
2021/12/28 10:31:30;;;;;;;2.45;1.55;;;10.00;99.90;;;;;;5021879;28;20440;-74
2021/12/28 10:34:20;;;;;;;2.50;1.60;;;10.00;99.90;;;;;;5026875;28;20221;-72
2021/12/28 10:37:15;;;;;;;2.00;1.50;;;10.10;99.90;;;;;;5025454;28;20465;-72
2021/12/28 10:40:07;;;;;;;3.70;1.33;;;10.10;99.90;;;;;;5028948;28;20433;-72
2021/12/28 10:42:56;;;;;;;2.00;1.50;;;10.20;99.90;;;;;;5026103;28;20786;-72
2021/12/28 10:45:43;;;;;;;4.75;1.63;;;10.20;99.90;;;;;;5022605;28;20495;-72
2021/12/28 10:48:33;;;;;;;1.50;1.30;;;10.20;99.90;;;;;;5018526;28;20202;-72
2021/12/28 10:51:22;;;;;;;2.70;1.50;;;10.20;99.90;;;;;;5029809;28;20437;-72
2021/12/28 10:54:13;;;;;;;1.60;1.37;;;10.30;99.90;;;;;;5027424;28;20460;-72
2021/12/28 10:57:00;;;;;;;1.80;1.17;;;10.30;99.90;;;;;;5020503;28;20421;-72
2021/12/28 10:59:45;;;;;;;3.97;1.17;;;10.30;99.90;;;;;;5028658;28;20478;-72
2021/12/28 11:02:31;;;;;;;2.03;1.43;;;10.40;99.90;;;;;;5027153;28;20491;-74
2021/12/28 11:05:31;;;;;;;2.30;1.80;;;10.40;99.90;;;;;;5023263;28;20464;-72
2021/12/28 11:08:18;;;;;;;2.00;1.30;;;10.50;99.90;;;;;;5023172;28;20684;-72
2021/12/28 11:11:07;;;;;;;2.70;1.47;;;10.50;99.90;;;;;;5028772;28;20419;-73
2021/12/28 11:13:56;;;;;;;1.80;1.47;;;10.50;99.90;;;;;;5027515;28;20535;-73
2021/12/28 11:16:42;;;;;;;2.17;1.40;;;10.50;99.90;;;;;;5030165;28;21014;-73
2021/12/28 11:19:30;;;;;;;4.00;1.97;;;10.60;99.90;;;;;;5028212;28;20511;-74
2021/12/28 11:22:15;;;;;;;1.90;1.57;;;10.60;99.90;;;;;;5027616;28;20495;-74
2021/12/28 11:25:01;;;;;;;1.90;1.30;;;10.60;99.90;;;;;;5025737;28;20550;-74
2021/12/28 11:27:46;;;;;;;3.83;1.90;;;10.60;99.90;;;;;;5025853;28;20507;-73
2021/12/28 11:30:33;;;;;;;2.50;1.60;;;10.70;99.90;;;;;;5026887;28;20523;-74
2021/12/28 11:33:19;;;;;;;2.00;1.60;;;10.70;99.90;;;;;;5013800;28;20864;-74
2021/12/28 11:36:05;;;;;;;1.87;1.30;;;10.70;99.90;;;;;;5028633;28;20491;-74
2021/12/28 11:38:51;;;;;;;2.90;1.90;;;10.70;99.90;;;;;;5024529;28;20460;-74
2021/12/28 11:41:37;;;;;;;2.30;1.60;;;10.70;99.90;;;;;;5024417;28;20448;-73
2021/12/28 11:44:24;;;;;;;2.50;1.80;;;10.70;99.90;;;;;;5028089;28;20561;-73
2021/12/28 11:47:13;;;;;;;1.90;1.47;;;10.80;99.90;;;;;;5022199;28;20547;-73
2021/12/28 11:50:00;;;;;;;2.67;1.60;;;10.80;99.90;;;;;;5033087;28;20929;-73
2021/12/28 11:52:46;;;;;;;5.93;2.40;;;10.90;99.90;;;;;;5033995;28;20815;-74
2021/12/28 11:55:32;;;;;;;2.63;1.90;;;10.90;99.90;;;;;;5034758;28;20421;-73
2021/12/28 11:58:18;;;;;;;2.67;1.67;;;10.80;99.90;;;;;;5025105;28;20957;-73
2021/12/28 12:01:04;;;;;;;4.00;2.10;;;10.80;99.90;;;;;;5031175;28;20498;-73
2021/12/28 12:03:50;;;;;;;2.83;1.70;;;10.80;99.90;;;;;;5027492;28;21212;-74
2021/12/28 12:07:01;;;;;;;2.47;2.00;;;10.90;99.90;;;;;;5030310;28;20801;-74
2021/12/28 12:10:10;;;;;;;2.40;2.03;;;10.80;99.90;;;;;;5033159;28;20912;-74
2021/12/28 12:12:58;;;;;;;3.20;1.80;;;10.80;99.90;;;;;;5016485;28;20558;-74
2021/12/28 12:15:47;;;;;;;2.27;1.70;;;10.90;99.90;;;;;;5029068;28;20440;-74
2021/12/28 12:18:45;;;;;;;3.87;2.07;;;10.90;99.90;;;;;;5027715;28;20994;-74
2021/12/28 12:21:33;;;;;;;2.50;1.80;;;10.80;99.90;;;;;;5030519;28;20416;-73
2021/12/28 12:24:35;;;;;;;2.57;2.03;;;10.80;99.90;;;;;;5023261;28;20480;-74
2021/12/28 12:27:39;;;;;;;1.83;1.63;;;10.90;99.90;;;;;;5030747;28;20873;-74
2021/12/28 12:30:45;;;;;;;2.30;1.70;;;10.90;99.90;;;;;;5024692;28;20433;-73
2021/12/28 12:33:40;;;;;;;2.63;1.80;;;10.90;99.90;;;;;;5031065;28;21136;-74
2021/12/28 12:36:38;;;;;;;2.70;1.70;;;10.90;99.90;;;;;;5022565;28;20444;-74
2021/12/28 12:39:25;;;;;;;3.97;1.90;;;11.00;99.90;;;;;;5031005;28;21047;-74
2021/12/28 12:42:12;;;;;;;2.43;2.00;;;11.00;99.90;;;;;;5030528;28;20813;-74
2021/12/28 12:44:58;;;;;;;3.70;2.03;;;11.00;99.90;;;;;;5024541;28;20462;-73
2021/12/28 12:47:47;;;;;;;4.17;2.70;;;11.00;99.90;;;;;;5026877;28;20464;-74
2021/12/28 12:50:33;;;;;;;4.03;2.10;;;11.00;99.90;;;;;;5023477;28;20484;-74
2021/12/28 12:53:45;;;;;;;4.33;2.40;;;11.10;99.90;;;;;;5032612;28;20448;-74
2021/12/28 12:56:34;;;;;;;2.70;1.93;;;11.00;99.90;;;;;;5030284;28;20449;-74
2021/12/28 12:59:26;;;;;;;2.80;1.80;;;11.10;99.90;;;;;;5032860;28;20556;-74
2021/12/28 13:02:15;;;;;;;4.77;1.77;;;11.10;99.90;;;;;;5031274;28;20428;-74
2021/12/28 13:05:14;;;;;;;3.00;1.57;;;11.10;99.90;;;;;;5021859;28;20607;-74
2021/12/28 13:08:09;;;;;;;2.13;1.53;;;11.10;99.90;;;;;;5022160;28;20568;-74
2021/12/28 13:10:56;;;;;;;3.10;1.73;;;11.00;99.90;;;;;;5032813;28;20503;-73
2021/12/28 13:13:48;;;;;;;2.90;2.03;;;11.10;99.90;;;;;;5030789;28;20610;-75
2021/12/28 13:16:34;;;;;;;3.20;2.07;;;11.00;99.90;;;;;;5024340;28;20591;-73
2021/12/28 13:19:20;;;;;;;4.83;2.03;;;11.00;99.90;;;;;;5027773;28;20424;-75
2021/12/28 13:22:10;;;;;;;3.43;1.70;;;11.10;99.90;;;;;;5030097;28;20495;-75
2021/12/28 13:24:57;;;;;;;2.40;1.60;;;11.10;99.90;;;;;;5025712;28;21004;-75
2021/12/28 13:27:46;;;;;;;2.80;1.80;;;11.00;99.90;;;;;;5024887;28;20460;-74
2021/12/28 13:30:34;;;;;;;2.63;1.30;;;11.10;99.90;;;;;;5027015;28;21009;-74
2021/12/28 13:33:22;;;;;;;5.13;1.77;;;11.10;99.90;;;;;;5032307;28;20460;-75
2021/12/28 13:36:08;;;;;;;2.10;1.60;;;11.10;99.90;;;;;;5031180;28;20579;-73
2021/12/28 13:39:05;;;;;;;2.50;1.77;;;11.10;99.90;;;;;;5023613;28;21000;-76
2021/12/28 13:41:53;;;;;;;3.00;1.80;;;11.10;99.90;;;;;;5029469;28;20440;-75
2021/12/28 13:44:46;;;;;;;2.00;1.50;;;11.10;99.90;;;;;;5023688;28;21064;-75
2021/12/28 13:47:34;;;;;;;2.27;1.57;;;11.10;99.90;;;;;;5025831;28;20441;-76
2021/12/28 13:50:20;;;;;;;5.43;2.90;;;11.10;99.90;;;;;;5025424;28;20834;-74
2021/12/28 13:53:12;;;;;;;4.93;1.70;;;11.10;99.90;;;;;;5030968;28;20547;-75
2021/12/28 13:56:01;;;;;;;4.47;2.50;;;11.10;99.90;;;;;;5028300;28;20410;-75
2021/12/28 13:58:53;;;;;;;5.53;2.00;;;11.00;99.90;;;;;;5026067;28;20456;-75
2021/12/28 14:01:46;;;;;;;3.73;2.17;;;11.10;99.90;;;;;;5030119;28;20483;-72
2021/12/28 14:04:32;;;;;;;3.17;2.07;;;11.10;99.90;;;;;;5013824;28;20604;-73
2021/12/28 14:07:18;;;;;;;3.00;1.90;;;11.00;99.90;;;;;;5021460;28;20441;-72
2021/12/28 14:10:09;;;;;;;2.80;1.90;;;11.10;99.90;;;;;;5023486;28;20491;-72
2021/12/28 14:13:12;;;;;;;2.97;2.00;;;11.10;99.90;;;;;;5028909;28;20456;-72
2021/12/28 14:16:04;;;;;;;5.47;2.30;;;11.10;99.90;;;;;;5026547;28;20433;-71
2021/12/28 14:18:53;;;;;;;3.43;2.27;;;11.00;99.90;;;;;;5024281;28;20445;-72
2021/12/28 14:21:47;;;;;;;5.63;2.07;;;11.00;99.90;;;;;;5025079;28;20542;-73
2021/12/28 14:24:37;;;;;;;5.27;2.13;;;11.00;99.90;;;;;;5027466;28;20615;-72
2021/12/28 14:27:28;;;;;;;2.60;1.30;;;11.00;99.90;;;;;;5027999;28;20473;-74
2021/12/28 14:30:15;;;;;;;4.50;1.20;;;10.80;99.90;;;;;;5030742;28;21065;-73
2021/12/28 14:33:01;;;;;;;3.60;1.30;;;10.60;99.90;;;;;;5023462;28;20469;-72
2021/12/28 14:35:48;;;;;;;1.93;1.00;;;10.40;99.90;;;;;;5016655;28;20437;-74